AirNav   Air Wisconsin Up To $57,000 Bonus
 
 1759 users online  

8MD5 Flying H Farm Airport
Libertytown, Maryland, USA

GOING TO LIBERTYTOWN?


FAA INFORMATION EFFECTIVE 30 JANUARY 2020

Location

FAA Identifier: 8MD5
Lat/Long: 39-29-54.0000N 077-13-18.0000W
39-29.900000N 077-13.300000W
39.4983333,-77.2216667
(estimated)
Elevation: 610 ft. / 186 m (estimated)
Variation: 10W (1995)
From city: 2 miles NE of LIBERTYTOWN, MD
Time zone: UTC -5 (UTC -4 during Daylight Saving Time)
Zip code: 21791

Airport Operations

Airport use: Private use. Permission required prior to landing
Activation date: 07/1999
Control tower: no
ARTCC: WASHINGTON CENTER
FSS: LEESBURG FLIGHT SERVICE STATION
Attendance: UNATNDD
Wind indicator: yes
Segmented circle: yes

Airport Communications

UNICOM: 123.075
WX AWOS-3 at FDK (9 nm SW): 124.875 (301-600-1457)
WX AWOS-3 at DMW (12 nm NE): 121.25 (410-876-1281)
WX AWOS-3PT at GAI (20 nm S): 128.275 (301-977-2971)

Nearby radio navigation aids

VOR radial/distance  VOR name  Freq  Var
FDKr062/(8.8)FREDERICK VOR109.0008W
EMIr279/11.3WESTMINSTER VORTAC117.9008W
MRBr084/29.8MARTINSBURG VORTAC112.1007W
HGRr119/(31.7)HAGERSTOWN VOR109.8007W
BALr318/32.6BALTIMORE VORTAC115.1011W
AMLr027/35.7ARMEL VOR/DME113.5008W
DCAr356/39.3WASHINGTON VOR/DME111.0009W

 
NDB name  Hdg/Dist  Freq  Var  ID
ELLICOTT313/24.237111WFND ..-. -. -..
GEORGETOWN001/34.432309WGTN --. - -.

Airport Services

Runway Information

Runway 18/36

Dimensions: 2000 x 50 ft. / 610 x 15 m
Surface: turf
RUNWAY 18  RUNWAY 36
Traffic pattern: leftright
Obstructions: 30 ft. pline, marked, 363 ft. from runwaynone

Airport Ownership and Management from official FAA records

Ownership: Privately-owned
Owner: FRANCIS E HARRISON
9608 B FOUNTAIN SCHOOL RD
UNION BRIDGE, MD 21791
Phone 301-829-0181
Manager: CHRISTIE HARRISON
9608 C FOUNTAIN SCHOOL RD
UNION BRIDGE, MD 21791
Phone 301-639-0747

Airport Operational Statistics

Aircraft based on the field: 6
Single engine airplanes: 1
Ultralights: 5
    

Additional Remarks

FOR CD CTC POTOMAC APCH AT 866-429-5882.

Instrument Procedures

There are no published instrument procedures at 8MD5.

Some nearby airports with instrument procedures:

KFDK - Frederick Municipal Airport (9 nm SW)
2W2 - Clearview Airpark (10 nm E)
KDMW - Carroll County Regional Airport/Jack B Poage Field (12 nm NE)
W50 - Davis Airport (16 nm S)
KGAI - Montgomery County Airpark (20 nm S)
 
Loc | Ops | Rwys | IFR | FBO | Links
Com | Nav | Svcs | Stats | Notes
Area around 8MD5 (Flying H Farm Airport)
 
Road maps at: MapQuest Bing Google
 
Aerial photo
WARNING: Photo may not be current or correct
Aerial photo of 8MD5 (Flying H Farm Airport)
Do you have a better or more recent aerial photo of Flying H Farm Airport that you would like to share? If so, please send us your photo.

 
Sectional chart

 
Airport distance calculator
Flying to Flying H Farm Airport? Find the distance to fly.

From to 8MD5

Sunrise and sunset
Times for 26-Feb-2020
 Local
(UTC-5)
 Zulu
(UTC)
Morning civil twilight06:2011:20
Sunrise06:4711:47
Sunset17:5622:56
Evening civil twilight18:2423:24

Current date and time
Zulu (UTC)  26-Feb-2020 16:19:49
Local (UTC-5)  26-Feb-2020 11:19:49
 
METAR
KFDK 
8nm SW 
261547Z 00000KT 1 SM BR OVC004 11/11 A2990
KDMW 
12nm NE 
261545Z AUTO 13007KT 1 3/4SM BR OVC005 10/09 A2990 RMK AO2
KGAI 
20nm S 
261556Z AUTO 11007KT 4SM BR OVC006 10/10 A2990 RMK AO2 SLP139 T01000100
TAF
KBWI 
32nm SE 
261140Z 2612/2718 10006KT 1/2SM FG OVC002 FM261300 00000KT 1SM BR OVC002 FM261700 10005KT P6SM OVC015 FM270000 10009KT 3SM -SHRA BR OVC003 FM270400 16010KT 2SM -SHRA OVC003 FM270600 27012G18KT 2SM BR OVC003 FM270800 27012G20KT P6SM BKN010 FM271300 27017G34KT P6SM SCT035
KIAD 
36nm S 
261140Z 2612/2718 00000KT 1/2SM FG OVC002 FM261500 11004KT 4SM BR OVC003 FM261700 11005KT P6SM OVC008 FM270100 14009KT 4SM -SHRA BR OVC003 FM270300 21010KT 1 1/2SM -SHRA BR OVC003 FM270600 28016G24KT 6SM BR SCT015 FM271300 29022G34KT P6SM SKC
KMRB 
36nm W 
261140Z 2612/2712 00000KT 1/4SM FG OVC003 FM261500 VRB03KT 4SM BR OVC003 FM261800 13006KT P6SM OVC015 FM262300 12007KT 5SM -SHRA OVC008 FM270100 16007KT 3SM -SHRA BR OVC003 FM270600 28018G27KT 3SM BR OVC008 FM270800 28019G38KT P6SM SCT020
KMTN 
39nm E 
261140Z 2612/2712 VRB03KT 3SM BR OVC003 FM261700 10004KT P6SM OVC015 FM270100 11009KT 4SM -SHRA BR OVC008 FM270300 12010G23KT 3SM -SHRA BR OVC003 FM270700 26015G23KT 4SM BR OVC008 FM271000 27015G27KT P6SM SCT035
KDCA 
40nm S 
261140Z 2612/2718 02004KT 6SM BR OVC008 FM261800 10005KT P6SM OVC010 FM270000 11008KT 4SM -SHRA BR OVC003 FM270300 17009KT 4SM -SHRA BR OVC003 FM270400 20014G21KT 4SM -SHRA BR OVC003 FM270600 28016G24KT 5SM BR OVC010 FM271300 29019G34KT P6SM SCT040
NOTAMs
Click for the latest NOTAMs
NOTAMs are issued by the DoD/FAA and will open in a separate window not controlled by AirNav.

 

 
 

Would you like to see your business listed on this page?

 If your business provides an interesting product or service to pilots, flight crews, aircraft, or users of the Flying H Farm Airport, you should consider listing it here.  To start the listing process, click on the button below
 
Add a business
 

Other Pages about Flying H Farm Airport

Update a link
 
Copyright © AirNav, LLC. All rights reserved. Privacy Policy  Contact